Decoded Metar for KRMG (ROME in GA, USA) (IATA:RMG) | Meteo·Mobile Aviation Weather
aviador You're here:

KRMG Decoded Metar

ROME in GA, USA
Report Time2018-10-20 06:53:00
UTC Time2018-10-20 07:17:31
Flight Rules vfr VFR
WindCalm
Visibility9999 m
Phenomena:N/A
Clouds:Overcast 039 Hf
Expected CloudBase > 1,200 ft AGL from Temp-Dew spread
Ceiling3,900 ft
Temp17°C (ISA +3)
Dew Point14°C (83% RH)
QNH1018 hPa
Density Alt1,063 ft
Elevation633 ft
Report Wrong Elevation
Raw Report
METAR KRMG 200653Z AUTO 00000KT 10SM OVC039 17/14 A3006 RMK AO2 SLP172
T01670144=

Extra information for KRMG:More info

Metar Taf Metar & Taf Last 4 Metars F.Rules Stats Wind Profile Meteogram Temp Stats Airport Information Weather charts Add Link Nearby VenuesMetar ALERT Operation Metar Decoded Social comments

AIRNAV info for KRMG